Time;durP1;ratioP1;P1;durP2;ratioP2;P2;SDS_P1;SDS_P2;PMS_P1;PMS_P2;Temp;Humidity;BMP_temperature;BMP_pressure;BME280_temperature;BME280_humidity;BME280_pressure;Samples;Min_cycle;Max_cycle;Signal;HPM_P1;HPM_P2
2023/09/03 00:01:04;;;;;;;8.48;6.50;;;;;;;14.81;100.00;99224.97;4105597;28;20501;-74
2023/09/03 00:03:05;;;;;;;7.63;6.47;;;;;;;14.80;100.00;99228.13;4104508;28;20138;-74
2023/09/03 00:05:06;;;;;;;8.88;6.65;;;;;;;14.78;100.00;99225.72;4105548;28;20059;-74
2023/09/03 00:07:07;;;;;;;8.50;6.70;;;;;;;14.76;100.00;99235.66;4117581;28;20481;-74
2023/09/03 00:09:07;;;;;;;7.70;6.13;;;;;;;14.72;100.00;99227.25;4112037;28;20080;-74
2023/09/03 00:11:07;;;;;;;8.93;5.78;;;;;;;14.73;100.00;99230.84;4120169;28;20604;-74
2023/09/03 00:13:08;;;;;;;7.95;5.43;;;;;;;14.74;100.00;99226.91;4117047;28;20101;-74
2023/09/03 00:15:09;;;;;;;6.65;5.70;;;;;;;14.73;100.00;99231.66;4121143;28;20077;-73
2023/09/03 00:17:13;;;;;;;7.47;5.45;;;;;;;14.71;100.00;99222.88;4117696;28;20599;-74
2023/09/03 00:19:14;;;;;;;5.40;4.85;;;;;;;14.66;100.00;99231.63;4114627;28;20054;-74
2023/09/03 00:21:14;;;;;;;6.72;5.20;;;;;;;14.63;100.00;99229.59;4104250;28;20494;-73
2023/09/03 00:23:14;;;;;;;10.20;5.30;;;;;;;14.57;100.00;99223.59;4109895;28;20436;-73
2023/09/03 00:25:15;;;;;;;6.90;4.88;;;;;;;14.53;100.00;99219.19;4109979;28;20117;-74
2023/09/03 00:27:15;;;;;;;8.02;4.60;;;;;;;14.54;100.00;99218.00;4107150;28;20486;-73
2023/09/03 00:29:16;;;;;;;6.55;4.60;;;;;;;14.54;100.00;99216.00;4105374;28;20369;-73
2023/09/03 00:31:17;;;;;;;4.78;4.05;;;;;;;14.56;100.00;99221.19;4106112;28;20334;-73
2023/09/03 00:33:17;;;;;;;7.50;4.40;;;;;;;14.55;100.00;99225.16;4109934;28;20379;-74
2023/09/03 00:35:18;;;;;;;4.50;3.95;;;;;;;14.56;100.00;99223.97;4105254;28;20162;-74
2023/09/03 00:37:18;;;;;;;6.85;4.20;;;;;;;14.59;100.00;99221.22;4114504;28;20082;-74
2023/09/03 00:39:18;;;;;;;7.80;4.40;;;;;;;14.65;100.00;99221.66;4113577;28;20139;-74
2023/09/03 00:41:19;;;;;;;3.75;3.42;;;;;;;14.68;100.00;99222.88;4109454;28;20497;-73
2023/09/03 00:43:19;;;;;;;4.30;3.47;;;;;;;14.69;100.00;99228.03;4109110;28;20120;-74
2023/09/03 00:45:19;;;;;;;3.97;3.58;;;;;;;14.71;100.00;99233.22;4109035;28;20050;-74
2023/09/03 00:47:20;;;;;;;5.55;4.15;;;;;;;14.71;100.00;99238.78;4119087;28;20038;-74
2023/09/03 00:49:23;;;;;;;4.15;3.75;;;;;;;14.73;100.00;99240.03;4119625;28;20121;-75
2023/09/03 00:51:24;;;;;;;4.20;3.58;;;;;;;14.73;100.00;99239.19;4108917;28;20066;-74
2023/09/03 00:53:25;;;;;;;5.28;4.25;;;;;;;14.72;100.00;99235.63;4112931;28;20108;-74
2023/09/03 00:55:26;;;;;;;6.45;3.75;;;;;;;14.73;100.00;99233.63;4112172;28;20093;-74
2023/09/03 00:57:28;;;;;;;5.05;3.95;;;;;;;14.74;100.00;99240.81;4115851;28;20478;-74
2023/09/03 00:59:30;;;;;;;5.05;4.22;;;;;;;14.72;100.00;99235.63;4105097;28;20043;-74
2023/09/03 01:01:31;;;;;;;4.82;4.00;;;;;;;14.76;100.00;99236.47;4104985;28;20051;-74
2023/09/03 01:03:32;;;;;;;6.53;4.40;;;;;;;14.74;100.00;99241.63;4114316;28;20046;-74
2023/09/03 01:05:32;;;;;;;5.43;4.50;;;;;;;14.72;100.00;99243.19;4112768;28;20078;-74
2023/09/03 01:07:32;;;;;;;8.27;4.20;;;;;;;14.74;100.00;99254.75;4110125;28;20082;-74
2023/09/03 01:09:33;;;;;;;7.20;4.25;;;;;;;14.69;100.00;99243.97;4119526;28;20047;-74
2023/09/03 01:11:57;;;;;;;8.35;4.22;;;;;;;14.63;100.00;99248.28;4119615;28;20042;-74
2023/09/03 01:14:11;;;;;;;7.93;4.70;;;;;;;14.57;100.00;99247.88;4115706;28;20094;-74
2023/09/03 01:16:22;;;;;;;7.15;4.90;;;;;;;14.50;100.00;99248.59;4103595;28;20051;-74
2023/09/03 01:18:26;;;;;;;5.60;4.80;;;;;;;14.50;100.00;99248.59;4104460;28;20084;-74
2023/09/03 01:20:37;;;;;;;8.90;5.20;;;;;;;14.51;100.00;99250.19;4103697;28;20058;-74
2023/09/03 01:23:17;;;;;;;6.78;4.97;;;;;;;14.52;100.00;99245.44;4103447;28;20198;-74
2023/09/03 01:25:20;;;;;;;5.45;4.63;;;;;;;14.52;100.00;99257.38;4100734;28;20200;-74
2023/09/03 01:27:39;;;;;;;6.57;5.25;;;;;;;14.50;100.00;99248.59;4109172;28;20100;-74
2023/09/03 01:29:41;;;;;;;5.63;4.90;;;;;;;14.49;100.00;99249.00;4104963;28;20145;-74
2023/09/03 01:31:43;;;;;;;5.03;4.40;;;;;;;14.48;100.00;99256.56;4104451;28;20043;-75
2023/09/03 01:33:45;;;;;;;6.28;4.90;;;;;;;14.49;100.00;99257.34;4111533;28;20510;-74
2023/09/03 01:35:47;;;;;;;6.30;5.13;;;;;;;14.49;100.00;99252.56;4120168;28;20085;-74
2023/09/03 01:37:47;;;;;;;5.65;5.05;;;;;;;14.50;100.00;99253.38;4119562;28;20128;-74
2023/09/03 01:39:48;;;;;;;6.13;4.78;;;;;;;14.49;100.00;99255.38;4118951;28;20084;-74
2023/09/03 01:41:48;;;;;;;6.85;4.93;;;;;;;14.55;100.00;99253.00;4114585;28;20397;-74
2023/09/03 01:43:49;;;;;;;5.90;4.80;;;;;;;14.53;100.00;99256.19;4114292;28;20059;-74
2023/09/03 01:45:58;;;;;;;6.78;4.90;;;;;;;14.58;100.00;99253.03;4110743;28;20192;-73
2023/09/03 01:48:07;;;;;;;7.05;4.97;;;;;;;14.57;100.00;99257.03;4104540;28;20039;-74
2023/09/03 01:50:21;;;;;;;5.75;4.80;;;;;;;14.54;100.00;99259.75;4104330;28;20059;-75
2023/09/03 01:52:37;;;;;;;9.55;5.80;;;;;;;14.55;100.00;99256.59;4113320;28;20485;-74
2023/09/03 01:54:47;;;;;;;6.47;4.80;;;;;;;14.57;100.00;99256.22;4110344;28;20815;-74
2023/09/03 01:56:54;;;;;;;5.85;4.68;;;;;;;14.51;100.00;99250.19;4118810;28;20070;-74
2023/09/03 01:58:59;;;;;;;8.73;4.88;;;;;;;14.51;100.00;99258.56;4105783;28;20051;-74
2023/09/03 02:01:02;;;;;;;5.75;5.05;;;;;;;14.53;100.00;99269.28;4104630;28;20498;-74
2023/09/03 02:03:03;;;;;;;6.47;4.90;;;;;;;14.49;100.00;99268.47;4110041;28;20108;-74
2023/09/03 02:05:04;;;;;;;6.43;4.50;;;;;;;14.49;100.00;99268.47;4116108;28;20103;-75
2023/09/03 02:07:04;;;;;;;5.07;4.25;;;;;;;14.46;100.00;99260.88;4104522;28;20047;-74
2023/09/03 02:09:05;;;;;;;5.13;4.32;;;;;;;14.43;100.00;99254.06;4108031;28;20402;-74
2023/09/03 02:11:05;;;;;;;4.95;3.90;;;;;;;14.43;100.00;99256.06;4104480;28;20043;-74
2023/09/03 02:13:06;;;;;;;5.70;4.72;;;;;;;14.42;100.00;99263.63;4109287;28;20745;-74
2023/09/03 02:15:07;;;;;;;5.50;4.65;;;;;;;14.39;100.00;99267.16;4118018;28;20471;-74
2023/09/03 02:17:09;;;;;;;6.22;4.60;;;;;;;14.34;100.00;99276.66;4113481;28;20054;-74
2023/09/03 02:19:09;;;;;;;6.32;5.15;;;;;;;14.32;100.00;99278.25;4104638;28;20181;-74
2023/09/03 02:21:09;;;;;;;5.70;4.28;;;;;;;14.29;100.00;99265.88;4104428;28;20603;-74
2023/09/03 02:23:10;;;;;;;6.68;4.63;;;;;;;14.25;100.00;99270.63;4104391;28;20410;-74
2023/09/03 02:25:10;;;;;;;8.82;4.85;;;;;;;14.23;100.00;99270.22;4108501;28;20047;-74
2023/09/03 02:27:11;;;;;;;6.45;4.90;;;;;;;14.20;100.00;99270.97;4114621;28;20046;-74
2023/09/03 02:29:12;;;;;;;6.47;4.65;;;;;;;14.26;100.00;99280.56;4105646;28;20062;-74
2023/09/03 02:31:13;;;;;;;6.53;5.43;;;;;;;14.21;100.00;99275.34;4113501;28;20455;-74
2023/09/03 02:33:13;;;;;;;5.30;4.40;;;;;;;14.21;100.00;99280.91;4113035;28;20130;-74
2023/09/03 02:35:13;;;;;;;5.95;4.35;;;;;;;14.23;100.00;99286.91;4106776;28;20047;-74
2023/09/03 02:37:14;;;;;;;6.88;4.60;;;;;;;14.26;100.00;99279.78;4120285;28;20486;-74
2023/09/03 02:39:14;;;;;;;5.30;4.32;;;;;;;14.23;100.00;99273.00;4115532;28;20070;-74
2023/09/03 02:41:14;;;;;;;10.73;4.90;;;;;;;14.31;100.00;99280.22;4106981;28;20108;-74
2023/09/03 02:43:15;;;;;;;5.82;4.75;;;;;;;14.29;100.00;99279.78;4106432;28;20050;-74
2023/09/03 02:45:15;;;;;;;5.95;4.43;;;;;;;14.29;100.00;99271.44;4106059;28;20085;-74
2023/09/03 02:47:15;;;;;;;7.95;4.70;;;;;;;14.29;100.00;99277.00;4107045;28;20157;-74
2023/09/03 02:49:16;;;;;;;6.82;4.90;;;;;;;14.32;100.00;99272.69;4110281;28;20276;-74
2023/09/03 02:51:16;;;;;;;5.13;4.60;;;;;;;14.33;100.00;99275.06;4116300;28;20081;-74
2023/09/03 02:53:16;;;;;;;5.18;4.47;;;;;;;14.37;100.00;99268.72;4106070;28;20144;-74
2023/09/03 02:55:17;;;;;;;5.40;4.25;;;;;;;14.36;100.00;99267.13;4106271;28;20077;-74
2023/09/03 02:57:17;;;;;;;5.70;4.70;;;;;;;14.36;100.00;99276.28;4107230;28;20112;-74
2023/09/03 02:59:17;;;;;;;4.50;4.10;;;;;;;14.37;100.00;99279.88;4108866;28;20064;-74
2023/09/03 03:01:22;;;;;;;6.40;4.85;;;;;;;14.42;100.00;99296.22;4122159;28;20533;-74
2023/09/03 03:03:23;;;;;;;5.30;4.47;;;;;;;14.42;100.00;99285.88;4109551;28;20050;-74
2023/09/03 03:05:23;;;;;;;5.60;4.38;;;;;;;14.42;100.00;99296.22;4113041;28;20043;-73
2023/09/03 03:07:25;;;;;;;5.90;4.80;;;;;;;14.39;100.00;99292.22;4106605;28;20083;-74
2023/09/03 03:09:26;;;;;;;7.35;5.10;;;;;;;14.42;100.00;99297.03;4110680;28;20038;-74
2023/09/03 03:11:26;;;;;;;5.20;4.65;;;;;;;14.47;100.00;99301.47;4119770;28;20321;-74
2023/09/03 03:13:27;;;;;;;5.85;4.70;;;;;;;14.53;100.00;99291.56;4114991;28;20058;-75
2023/09/03 03:15:28;;;;;;;5.30;4.32;;;;;;;14.48;100.00;99287.19;4113176;28;20075;-74
2023/09/03 03:17:28;;;;;;;7.47;4.80;;;;;;;14.44;100.00;99289.09;4106191;28;20047;-74
2023/09/03 03:19:29;;;;;;;5.88;4.32;;;;;;;14.47;100.00;99293.09;4117553;28;20049;-74
2023/09/03 03:21:29;;;;;;;5.18;4.35;;;;;;;14.47;100.00;99281.97;4120989;28;20057;-74
2023/09/03 03:23:29;;;;;;;5.20;4.45;;;;;;;14.45;100.00;99290.72;4120539;28;20701;-74
2023/09/03 03:25:30;;;;;;;5.32;4.30;;;;;;;14.47;100.00;99290.31;4114111;28;20049;-74
2023/09/03 03:27:30;;;;;;;7.25;4.47;;;;;;;14.47;100.00;99293.09;4115305;28;20042;-74
2023/09/03 03:29:32;;;;;;;6.75;4.63;;;;;;;14.50;100.00;99295.13;4112891;28;20109;-74
2023/09/03 03:31:32;;;;;;;6.53;4.65;;;;;;;14.44;100.00;99294.66;4114716;28;20047;-74
2023/09/03 03:33:32;;;;;;;5.53;4.68;;;;;;;14.40;100.00;99296.63;4105558;28;20130;-74
2023/09/03 03:35:36;;;;;;;6.63;4.90;;;;;;;14.36;100.00;99298.56;4109792;28;20300;-74
2023/09/03 03:37:36;;;;;;;6.18;5.20;;;;;;;14.36;100.00;99287.41;4106196;28;20503;-74
2023/09/03 03:39:37;;;;;;;8.65;5.18;;;;;;;14.33;100.00;99280.66;4110346;28;20145;-73
2023/09/03 03:41:37;;;;;;;7.25;5.13;;;;;;;14.31;100.00;99280.22;4109932;28;20349;-74
2023/09/03 03:43:40;;;;;;;7.30;5.30;;;;;;;14.30;100.00;99275.81;4120236;28;20046;-74
2023/09/03 03:45:40;;;;;;;;;;;;;;;14.30;100.00;99272.25;4112584;28;20065;-74
2023/09/03 03:47:40;;;;;;;6.33;5.10;;;;;;;14.27;100.00;99268.25;4118045;28;20001;-74
2023/09/03 03:49:41;;;;;;;5.57;4.90;;;;;;;14.25;100.00;99261.47;4113964;28;20709;-74
2023/09/03 03:51:41;;;;;;;6.78;4.72;;;;;;;14.24;100.00;99268.22;4105867;28;20043;-74
2023/09/03 03:53:42;;;;;;;6.00;4.85;;;;;;;14.20;100.00;99267.38;4105826;28;20501;-74
2023/09/03 03:55:42;;;;;;;7.22;4.68;;;;;;;14.18;100.00;99269.75;4104940;28;20054;-74
2023/09/03 03:57:42;;;;;;;5.05;4.30;;;;;;;14.19;100.00;99272.16;4114843;28;20563;-74
2023/09/03 03:59:43;;;;;;;5.32;4.00;;;;;;;14.18;100.00;99265.00;4119978;28;20081;-74
2023/09/03 04:01:44;;;;;;;6.45;4.35;;;;;;;14.19;100.00;99260.22;4120926;28;20084;-74
2023/09/03 04:03:46;;;;;;;4.53;4.03;;;;;;;14.19;100.00;99268.56;4108096;28;20034;-73
2023/09/03 04:06:03;;;;;;;5.63;4.57;;;;;;;14.19;100.00;99266.59;4104821;28;20353;-74
2023/09/03 04:08:03;;;;;;;5.45;4.70;;;;;;;14.19;100.00;99263.81;4105440;28;20053;-75
2023/09/03 04:10:05;;;;;;;5.57;4.40;;;;;;;14.19;100.00;99260.22;4117223;28;20113;-74
2023/09/03 04:12:06;;;;;;;7.38;4.20;;;;;;;14.19;100.00;99255.44;4119960;28;20045;-74
2023/09/03 04:14:06;;;;;;;5.28;3.97;;;;;;;14.22;100.00;99257.47;4119823;28;20101;-74
2023/09/03 04:16:10;;;;;;;6.55;4.63;;;;;;;14.21;100.00;99267.00;4108482;28;20070;-74
2023/09/03 04:18:10;;;;;;;5.45;4.07;;;;;;;14.20;100.00;99279.31;4105212;28;20393;-74
2023/09/03 04:20:11;;;;;;;6.07;4.18;;;;;;;14.19;100.00;99283.28;4105138;28;20039;-74
2023/09/03 04:22:11;;;;;;;4.88;3.95;;;;;;;14.23;100.00;99286.09;4116065;28;20038;-75
2023/09/03 04:24:12;;;;;;;5.20;3.92;;;;;;;14.23;100.00;99292.47;4108590;28;20049;-74
2023/09/03 04:26:12;;;;;;;6.05;4.38;;;;;;;14.22;100.00;99295.63;4104160;28;20069;-74
2023/09/03 04:28:13;;;;;;;5.70;4.43;;;;;;;14.22;100.00;99304.78;4110000;28;20034;-74
2023/09/03 04:30:13;;;;;;;6.90;4.63;;;;;;;14.23;100.00;99305.56;4119982;28;20107;-74
2023/09/03 04:32:14;;;;;;;6.35;4.57;;;;;;;14.26;100.00;99307.59;4107785;28;20092;-74
2023/09/03 04:34:14;;;;;;;6.20;5.07;;;;;;;14.25;100.00;99306.00;4116040;28;20125;-74
2023/09/03 04:36:14;;;;;;;7.45;4.10;;;;;;;14.28;100.00;99308.81;4108828;28;20058;-74
2023/09/03 04:38:15;;;;;;;5.93;4.60;;;;;;;14.33;100.00;99318.81;4105480;28;20038;-74
2023/09/03 04:40:16;;;;;;;6.50;4.13;;;;;;;14.32;100.00;99320.81;4105219;28;20482;-74
2023/09/03 04:42:16;;;;;;;9.60;4.63;;;;;;;14.32;100.00;99325.56;4116960;28;20038;-74
2023/09/03 04:44:17;;;;;;;4.95;4.15;;;;;;;14.36;100.00;99334.75;4117207;28;20614;-74
2023/09/03 04:46:17;;;;;;;5.30;4.53;;;;;;;14.36;100.00;99325.59;4105795;28;20427;-74
2023/09/03 04:48:18;;;;;;;6.90;4.75;;;;;;;14.37;100.00;99328.00;4114740;28;20145;-74
2023/09/03 04:50:18;;;;;;;6.53;4.38;;;;;;;14.39;100.00;99339.53;4105489;28;20035;-75
2023/09/03 04:52:19;;;;;;;6.63;4.45;;;;;;;14.39;100.00;99345.09;4103993;28;20594;-74
2023/09/03 04:54:19;;;;;;;5.82;4.68;;;;;;;14.42;100.00;99349.94;4110527;28;20031;-74
2023/09/03 04:56:19;;;;;;;5.72;4.32;;;;;;;14.46;100.00;99356.34;4118290;28;20521;-74
2023/09/03 04:58:20;;;;;;;6.88;4.82;;;;;;;14.43;100.00;99351.53;4119570;28;20045;-74
2023/09/03 05:00:20;;;;;;;5.43;4.82;;;;;;;14.41;100.00;99356.69;4119668;28;20046;-74
2023/09/03 05:02:21;;;;;;;7.53;4.50;;;;;;;14.41;100.00;99367.03;4113199;28;20535;-74
2023/09/03 05:04:21;;;;;;;5.55;4.85;;;;;;;14.41;100.00;99372.59;4104052;28;20089;-74
2023/09/03 05:06:21;;;;;;;6.55;4.95;;;;;;;14.45;100.00;99379.81;4105207;28;20057;-74
2023/09/03 05:08:22;;;;;;;10.60;5.25;;;;;;;14.47;100.00;99379.41;4105252;28;20501;-74
2023/09/03 05:10:23;;;;;;;7.50;5.18;;;;;;;14.40;100.00;99379.31;4119560;28;20191;-74
2023/09/03 05:12:24;;;;;;;6.38;4.88;;;;;;;14.43;100.00;99386.91;4117787;28;20058;-74
2023/09/03 05:14:24;;;;;;;8.52;5.30;;;;;;;14.38;100.00;99382.47;4108680;28;20751;-74
2023/09/03 05:16:26;;;;;;;7.22;5.15;;;;;;;14.38;100.00;99388.03;4104799;28;20541;-74
2023/09/03 05:18:27;;;;;;;6.85;5.35;;;;;;;14.36;100.00;99390.41;4116702;28;20042;-74
2023/09/03 05:20:27;;;;;;;10.45;4.85;;;;;;;14.34;100.00;99387.22;4114084;28;20443;-74
2023/09/03 05:22:27;;;;;;;9.48;5.88;;;;;;;14.37;100.00;99391.22;4119477;28;20501;-74
2023/09/03 05:24:28;;;;;;;8.52;6.10;;;;;;;14.38;100.00;99396.41;4104407;28;20080;-74
2023/09/03 05:26:28;;;;;;;7.35;5.82;;;;;;;14.39;100.00;99383.28;4107125;28;20505;-74
2023/09/03 05:28:29;;;;;;;8.07;5.28;;;;;;;14.41;100.00;99398.44;4115527;28;20050;-74
2023/09/03 05:30:30;;;;;;;6.65;5.63;;;;;;;14.43;100.00;99398.84;4108092;28;20180;-74
2023/09/03 05:32:30;;;;;;;9.77;6.28;;;;;;;14.44;100.00;99406.03;4103748;28;20177;-74
2023/09/03 05:34:30;;;;;;;8.10;5.97;;;;;;;14.49;100.00;99404.91;4103918;28;20802;-74
2023/09/03 05:36:31;;;;;;;9.23;6.82;;;;;;;14.48;100.00;99409.69;4105378;28;20066;-74
2023/09/03 05:38:31;;;;;;;11.10;7.13;;;;;;;14.47;100.00;99421.97;4108243;28;20480;-74
2023/09/03 05:40:32;;;;;;;8.98;6.95;;;;;;;14.48;100.00;99417.22;4119666;28;20043;-74
2023/09/03 05:42:32;;;;;;;10.40;6.43;;;;;;;14.54;100.00;99410.91;4116725;28;20047;-74
2023/09/03 05:44:33;;;;;;;10.75;6.97;;;;;;;14.52;100.00;99418.06;4111549;28;20451;-74
2023/09/03 05:46:33;;;;;;;10.63;7.15;;;;;;;14.49;100.00;99425.22;4118940;28;20038;-74
2023/09/03 05:48:33;;;;;;;11.18;7.88;;;;;;;14.43;100.00;99423.91;4119394;28;20100;-74
2023/09/03 05:50:34;;;;;;;10.27;7.25;;;;;;;14.48;100.00;99417.22;4113693;28;20477;-75
2023/09/03 05:52:34;;;;;;;10.13;7.20;;;;;;;14.54;100.00;99432.41;4109656;28;20058;-74
2023/09/03 05:54:35;;;;;;;11.20;7.70;;;;;;;14.54;100.00;99415.69;4109349;28;20054;-74
2023/09/03 05:56:35;;;;;;;13.23;7.53;;;;;;;14.57;100.00;99421.31;4116095;28;20473;-74
2023/09/03 05:58:36;;;;;;;9.10;7.03;;;;;;;14.63;100.00;99423.75;4120001;28;20397;-74
2023/09/03 06:00:40;;;;;;;12.30;8.02;;;;;;;14.68;100.00;99415.03;4118267;28;20038;-74
2023/09/03 06:02:41;;;;;;;11.43;8.50;;;;;;;14.72;100.00;99427.00;4110842;28;20220;-74
2023/09/03 06:04:41;;;;;;;12.52;8.32;;;;;;;14.73;100.00;99429.44;4118207;28;20502;-74
2023/09/03 06:06:42;;;;;;;16.33;9.30;;;;;;;14.82;100.00;99432.72;4106994;28;20148;-74
2023/09/03 06:08:42;;;;;;;14.43;9.55;;;;;;;14.87;100.00;99440.69;4108918;28;20439;-74
2023/09/03 06:10:43;;;;;;;13.23;9.88;;;;;;;14.86;100.00;99443.88;4107467;28;20051;-74
2023/09/03 06:12:44;;;;;;;16.00;10.70;;;;;;;14.86;100.00;99435.50;4106093;28;20063;-74
2023/09/03 06:14:44;;;;;;;16.73;10.90;;;;;;;14.91;100.00;99434.38;4107244;28;20433;-74
2023/09/03 06:16:44;;;;;;;13.52;10.50;;;;;;;14.91;100.00;99429.59;4110672;28;20087;-74
2023/09/03 06:18:45;;;;;;;17.35;11.65;;;;;;;14.84;100.00;99441.47;4117749;28;20047;-74
2023/09/03 06:20:45;;;;;;;16.42;10.88;;;;;;;14.87;100.00;99453.84;4106440;28;20082;-74
2023/09/03 06:22:46;;;;;;;18.52;12.43;;;;;;;14.83;100.00;99455.78;4115644;28;20058;-74
2023/09/03 06:24:46;;;;;;;17.17;12.55;;;;;;;14.81;100.00;99460.94;4110263;28;20459;-74
2023/09/03 06:26:46;;;;;;;17.45;12.35;;;;;;;14.88;100.00;99458.22;4111323;28;20502;-74
2023/09/03 06:28:47;;;;;;;19.45;12.18;;;;;;;14.88;100.00;99459.00;4119301;28;20119;-74
2023/09/03 06:30:47;;;;;;;18.95;13.05;;;;;;;14.85;100.00;99467.34;4121518;28;20051;-74
2023/09/03 06:32:47;;;;;;;17.42;11.88;;;;;;;14.93;100.00;99476.59;4109630;28;21005;-74
2023/09/03 06:34:48;;;;;;;17.23;12.68;;;;;;;14.87;100.00;99482.50;4105696;28;20151;-74
2023/09/03 06:36:48;;;;;;;17.23;11.73;;;;;;;14.92;100.00;99486.94;4106312;28;20051;-74
2023/09/03 06:38:49;;;;;;;19.10;12.80;;;;;;;14.92;100.00;99480.56;4106820;28;20061;-74
2023/09/03 06:40:49;;;;;;;18.92;12.75;;;;;;;14.96;100.00;99500.88;4107829;28;20402;-74
2023/09/03 06:42:51;;;;;;;18.77;12.35;;;;;;;14.99;100.00;99512.09;4120862;28;20050;-74
2023/09/03 06:44:51;;;;;;;20.35;13.07;;;;;;;14.97;100.00;99516.41;4108937;28;20046;-74
2023/09/03 06:46:51;;;;;;;20.65;14.15;;;;;;;14.86;100.00;99497.59;4118827;28;20046;-74
2023/09/03 06:48:53;;;;;;;21.65;13.88;;;;;;;14.84;100.00;99508.34;4116592;28;20100;-74
2023/09/03 06:50:53;;;;;;;20.20;13.55;;;;;;;14.84;100.00;99505.56;4121895;28;20073;-74
2023/09/03 06:52:53;;;;;;;18.65;13.38;;;;;;;14.83;100.00;99519.88;4119481;28;20062;-74
2023/09/03 06:54:54;;;;;;;21.25;14.30;;;;;;;14.82;100.00;99510.72;4119696;28;20054;-74
2023/09/03 06:56:54;;;;;;;23.40;14.55;;;;;;;14.88;100.00;99513.94;4113845;28;20057;-74
2023/09/03 06:58:54;;;;;;;21.42;13.55;;;;;;;14.91;100.00;99515.97;4120985;28;20137;-74
2023/09/03 07:00:55;;;;;;;21.80;14.38;;;;;;;14.92;100.00;99528.72;4113996;28;20062;-74
2023/09/03 07:02:55;;;;;;;21.50;14.45;;;;;;;14.93;100.00;99537.88;4106598;28;20120;-74
2023/09/03 07:04:59;;;;;;;20.73;14.63;;;;;;;15.02;100.00;99541.97;4106723;28;20051;-74
2023/09/03 07:06:59;;;;;;;20.52;14.05;;;;;;;15.09;100.00;99542.03;4109888;28;20051;-74
2023/09/03 07:09:00;;;;;;;19.75;14.00;;;;;;;15.17;100.00;99542.91;4119400;28;20066;-74
2023/09/03 07:11:00;;;;;;;20.35;14.48;;;;;;;15.13;100.00;99550.44;4114495;28;20165;-74
2023/09/03 07:13:01;;;;;;;20.52;13.98;;;;;;;15.18;100.00;99553.69;4109401;28;20051;-74
2023/09/03 07:15:01;;;;;;;20.17;13.63;;;;;;;15.26;100.00;99551.75;4120124;28;20121;-74
2023/09/03 07:17:02;;;;;;;19.30;14.05;;;;;;;15.22;100.00;99553.69;4114360;28;20100;-74
2023/09/03 07:19:03;;;;;;;24.63;15.85;;;;;;;15.20;100.00;99544.94;4122114;28;20054;-74
2023/09/03 07:21:05;;;;;;;25.15;16.88;;;;;;;15.20;100.00;99541.34;4118810;28;20080;-74
2023/09/03 07:23:05;;;;;;;22.88;16.10;;;;;;;15.28;100.00;99538.25;4115393;28;20043;-74
2023/09/03 07:25:06;;;;;;;26.05;16.65;;;;;;;15.30;100.00;99538.66;4106221;28;20474;-74
2023/09/03 07:27:06;;;;;;;23.20;16.13;;;;;;;15.29;100.00;99536.25;4118818;28;20051;-74
2023/09/03 07:29:07;;;;;;;25.25;16.85;;;;;;;15.29;100.00;99537.06;4106892;28;20078;-74
2023/09/03 07:31:07;;;;;;;24.13;16.45;;;;;;;15.30;100.00;99535.88;4106242;28;20062;-74
2023/09/03 07:33:07;;;;;;;24.80;16.83;;;;;;;15.30;100.00;99537.84;4105539;28;20035;-74
2023/09/03 07:35:08;;;;;;;22.23;15.75;;;;;;;15.30;100.00;99546.22;4118164;28;20054;-74
2023/09/03 07:37:08;;;;;;;25.10;17.00;;;;;;;15.35;100.00;99554.25;4120234;28;20039;-74
2023/09/03 07:39:11;;;;;;;27.60;16.80;;;;;;;15.36;100.00;99556.63;4121340;28;20397;-74
2023/09/03 07:41:12;;;;;;;24.42;16.02;;;;;;;15.40;100.00;99557.50;4105929;28;20144;-74
2023/09/03 07:43:12;;;;;;;25.95;16.60;;;;;;;15.53;100.00;99571.94;4105766;28;20046;-74
2023/09/03 07:45:13;;;;;;;21.80;15.25;;;;;;;15.61;100.00;99584.78;4107795;28;20096;-74
2023/09/03 07:47:13;;;;;;;23.88;16.10;;;;;;;15.71;100.00;99580.47;4113596;28;20134;-74
2023/09/03 07:49:15;;;;;;;22.92;15.95;;;;;;;15.80;100.00;99580.16;4108032;28;20218;-74
2023/09/03 07:51:17;;;;;;;21.77;16.23;;;;;;;15.87;100.00;99575.44;4115911;28;20417;-74
2023/09/03 07:53:17;;;;;;;24.50;16.30;;;;;;;15.95;100.00;99577.09;4110833;28;20076;-74
2023/09/03 07:55:17;;;;;;;22.17;15.50;;;;;;;16.04;100.00;99573.97;4111225;28;20051;-74
2023/09/03 07:57:18;;;;;;;20.48;15.02;;;;;;;16.15;100.00;99576.84;4109009;28;20793;-74
2023/09/03 07:59:19;;;;;;;21.33;15.93;;;;;;;16.14;100.00;99575.25;4107790;28;20045;-74
2023/09/03 08:01:19;;;;;;;23.65;16.02;;;;;;;16.21;100.00;99584.44;4109337;28;20077;-74
2023/09/03 08:03:19;;;;;;;23.00;15.40;;;;;;;16.23;100.00;99575.69;4115623;28;20050;-74
2023/09/03 08:05:20;;;;;;;23.95;16.58;;;;;;;16.31;100.00;99566.16;4107234;28;20051;-74
2023/09/03 08:07:21;;;;;;;23.60;15.07;;;;;;;16.39;100.00;99564.22;4109271;28;20085;-74
2023/09/03 08:09:23;;;;;;;20.95;14.90;;;;;;;16.45;100.00;99574.59;4116952;28;20050;-74
2023/09/03 08:11:23;;;;;;;;;;;;;;;16.38;100.00;99582.94;4109104;28;20057;-74
2023/09/03 08:13:25;;;;;;;21.52;15.30;;;;;;;16.32;100.00;99587.31;4115385;28;20140;-74
2023/09/03 08:15:25;;;;;;;22.35;15.50;;;;;;;16.35;100.00;99588.53;4117293;28;20049;-74
2023/09/03 08:17:26;;;;;;;25.23;15.68;;;;;;;16.37;100.00;99581.34;4116444;28;20397;-74
2023/09/03 08:19:26;;;;;;;20.48;14.85;;;;;;;16.37;100.00;99574.97;4108147;28;20051;-74
2023/09/03 08:21:27;;;;;;;20.35;14.95;;;;;;;16.50;100.00;99576.25;4111620;28;20057;-74
2023/09/03 08:23:28;;;;;;;24.13;15.73;;;;;;;16.58;100.00;99583.47;4105093;28;20082;-74
2023/09/03 08:25:30;;;;;;;20.10;14.73;;;;;;;16.64;100.00;99583.91;4106098;28;20375;-74
2023/09/03 08:27:30;;;;;;;18.00;13.90;;;;;;;16.70;100.00;99579.53;4116073;28;20054;-74
2023/09/03 08:29:30;;;;;;;20.98;14.73;;;;;;;16.73;100.00;99584.38;4117519;28;20452;-74
2023/09/03 08:31:31;;;;;;;18.08;13.93;;;;;;;16.76;100.00;99573.19;4109504;28;20435;-74
2023/09/03 08:33:33;;;;;;;18.23;14.23;;;;;;;16.75;100.00;99577.19;4108516;28;20125;-74
2023/09/03 08:35:35;;;;;;;18.75;14.50;;;;;;;16.78;100.00;99581.97;4105648;28;20620;-74
2023/09/03 08:37:36;;;;;;;17.95;14.02;;;;;;;16.86;100.00;99582.81;4105049;28;20081;-74
2023/09/03 08:39:36;;;;;;;20.38;15.52;;;;;;;16.94;100.00;99576.03;4105704;28;20490;-74
2023/09/03 08:41:38;;;;;;;16.92;13.07;;;;;;;16.98;100.00;99582.47;4105492;28;20525;-74
2023/09/03 08:43:39;;;;;;;19.83;14.25;;;;;;;17.05;100.00;99588.09;4114578;28;20094;-74
2023/09/03 08:45:52;;;;;;;19.60;14.65;;;;;;;17.09;100.00;99579.69;4113340;28;20118;-74
2023/09/03 08:47:53;;;;;;;17.73;13.95;;;;;;;17.18;100.00;99585.72;4108572;28;20050;-74
2023/09/03 08:49:54;;;;;;;17.48;12.85;;;;;;;17.34;100.00;99591.75;4103104;28;20625;-74
2023/09/03 08:51:57;;;;;;;20.02;13.85;;;;;;;17.56;100.00;99600.97;4110491;28;20046;-74
2023/09/03 08:53:58;;;;;;;16.55;13.77;;;;;;;17.65;100.00;99595.00;4116398;28;20513;-74
2023/09/03 08:55:59;;;;;;;20.60;15.23;;;;;;;17.77;100.00;99605.00;4117987;28;20107;-74
2023/09/03 08:57:59;;;;;;;17.90;13.00;;;;;;;17.80;100.00;99601.44;4115884;28;20680;-74
2023/09/03 09:00:01;;;;;;;15.27;12.85;;;;;;;17.82;100.00;99610.22;4105874;28;20062;-74
2023/09/03 09:02:02;;;;;;;17.05;11.88;;;;;;;17.82;100.00;99611.03;4106135;28;20571;-75
2023/09/03 09:04:03;;;;;;;15.23;11.30;;;;;;;17.76;100.00;99614.59;4112905;28;20331;-74
2023/09/03 09:06:06;;;;;;;16.27;11.82;;;;;;;17.62;100.00;99620.94;4116415;28;20520;-74
2023/09/03 09:08:07;;;;;;;15.95;12.43;;;;;;;17.71;100.00;99612.19;4114721;28;20064;-74
2023/09/03 09:10:13;;;;;;;16.08;12.05;;;;;;;17.75;100.00;99624.22;4114762;28;20035;-74
2023/09/03 09:12:31;;;;;;;15.50;11.90;;;;;;;17.67;100.00;99617.78;4105130;28;20114;-74
2023/09/03 09:15:04;;;;;;;15.20;11.80;;;;;;;17.74;100.00;99625.41;4113794;28;20160;-74
2023/09/03 09:17:11;;;;;;;13.73;10.63;;;;;;;17.79;100.00;99611.00;4105450;28;20150;-74
2023/09/03 09:19:17;;;;;;;13.70;10.75;;;;;;;17.81;100.00;99617.03;4108875;28;20057;-74
2023/09/03 09:21:18;;;;;;;15.10;10.55;;;;;;;17.78;100.00;99624.19;4108311;28;20082;-74